Airfield :
LOGIN :

Register | Disclaimer

   EN    FR    IT 

 










Legend :    VFR   Marginal VFR   IFR   Intensive IFR   Very Intensive IFR
Visi :
Ceiling :
>= 8 km
>= 3000ft
5 to 8 km
1000 to 3000 ft
1500m to 5 km
500 to 1000 ft
800 to 1500m
200 to 500 ft
< 800m
< 200 ft
Symbols :   Thunderstorms  Fog  Heavy snow  Heavy precipitations  Wind > 20 kt
SIGMETs :     Misc.  Thunderstorms  Icing  Turbulence  Mountain Waves  Volcanic Ashes






- Airport Elevation : 614 ft
- IATA code : CRL


EBCI - Charleroi

CURRENT METAR :
  • 232320Z 19004KT 160V220 0600 R24/P2000N FG SCT001 BKN002 02/01 Q1025 NOSIG

EXPIRED METARs :
  • 232250Z 17004KT 0600 R24/P2000N FG SCT001 BKN002 02/01 Q1025 NOSIG
  • 232220Z 09003KT 070V140 0600 R24/P2000N FG SCT001 BKN002 02/01 Q1025 NOSIG
  • 232150Z 12003KT 090V160 0800 R24/1900N FG SCT001 BKN002 02/01 Q1026 TEMPO 1200 BR BKN003
  • 232120Z 11004KT 080V180 0800 R24/1800D FG SCT001 BKN002 02/01 Q1026 TEMPO 1200 BR BKN003

TAF TAF EBCI
Valid from the 24 at 00:00 until the 25 at 06:00 UTC


232300Z 2400/2506 19003KT 0800 FG -DZ BKN002
PROB30
TEMPO 2403/2410 0500 FZFG -SG BKN001
BECMG 2410/2412 3500 BR SCT004 BKN007
TEMPO 2413/2418 6000 NSW SCT008 SCT020
PROB30
TEMPO 2420/2506 0800 FG FZFG BKN002



MET'MAP, your aeronautical weather chart ! - Copyright ORBIFLY December 2007 - Disclaimer

ORBIFLY MET'MAP TEAM :

Programming & Development : Alexandra Zaïnal
Concept & original design : Baudouin d'Aumeries
Assistance for programming : Marc-Olivier Méhu
Technical & hardware support : Manuel Goepfert

Contact : metmap@orbifly.com




SOURCES & CREDITS :

   NOAA